Time;durP1;ratioP1;P1;durP2;ratioP2;P2;SDS_P1;SDS_P2;PMS_P1;PMS_P2;Temp;Humidity;BMP_temperature;BMP_pressure;BME280_temperature;BME280_humidity;BME280_pressure;Samples;Min_cycle;Max_cycle;Signal;HPM_P1;HPM_P2
2023/09/26 00:00:54;;;;;;;16.15;7.03;;;;;;;10.47;100.00;100964.69;5179327;27;20057;-60
2023/09/26 00:03:20;;;;;;;14.10;6.07;;;;;;;10.46;100.00;100965.00;5179792;27;20110;-60
2023/09/26 00:05:48;;;;;;;10.02;5.28;;;;;;;10.38;100.00;100977.56;5179546;27;20131;-61
2023/09/26 00:08:14;;;;;;;15.82;5.50;;;;;;;10.32;100.00;100987.06;5179215;27;20046;-62
2023/09/26 00:10:40;;;;;;;8.43;5.07;;;;;;;10.32;100.00;100990.59;5179023;27;20141;-62
2023/09/26 00:13:06;;;;;;;9.98;5.82;;;;;;;10.30;100.00;101000.31;5179405;27;20195;-62
2023/09/26 00:15:33;;;;;;;11.75;5.35;;;;;;;10.40;100.00;101000.00;5179526;27;20046;-62
2023/09/26 00:17:59;;;;;;;8.63;5.25;;;;;;;10.30;100.00;101000.31;5179055;27;20438;-60
2023/09/26 00:20:27;;;;;;;8.27;5.07;;;;;;;10.24;100.00;101004.28;5179354;27;20400;-60
2023/09/26 00:22:54;;;;;;;7.72;5.43;;;;;;;10.23;100.00;100994.41;5178884;27;20472;-62
2023/09/26 00:25:20;;;;;;;12.02;7.00;;;;;;;10.17;100.00;100999.25;5179517;27;20355;-60
2023/09/26 00:27:46;;;;;;;12.95;5.72;;;;;;;10.21;100.00;100983.78;5178977;27;20140;-60
2023/09/26 00:30:13;;;;;;;9.20;5.68;;;;;;;10.23;100.00;100984.28;5179389;27;20417;-60
2023/09/26 00:32:39;;;;;;;9.23;5.85;;;;;;;10.14;100.00;100983.44;5178847;27;20054;-62
2023/09/26 00:35:08;;;;;;;9.85;5.57;;;;;;;10.16;100.00;100986.66;5179138;27;20136;-62
2023/09/26 00:37:35;;;;;;;6.97;5.32;;;;;;;9.96;100.00;100977.06;5178881;27;20105;-62
2023/09/26 00:40:01;;;;;;;8.77;5.25;;;;;;;10.20;100.00;100943.00;5178947;27;20054;-62
2023/09/26 00:42:27;;;;;;;9.35;6.43;;;;;;;10.29;100.00;100930.94;5179015;27;20050;-62
2023/09/26 00:44:53;;;;;;;10.73;6.03;;;;;;;10.26;100.00;100947.22;5178946;27;20050;-61
2023/09/26 00:47:21;;;;;;;10.48;5.78;;;;;;;10.23;100.00;100967.84;5179111;27;20054;-61
2023/09/26 00:49:48;;;;;;;10.20;5.82;;;;;;;10.10;100.00;100968.75;5178838;27;20065;-61
2023/09/26 00:52:14;;;;;;;10.93;5.43;;;;;;;10.01;100.00;100967.91;5179077;27;20091;-59
2023/09/26 00:54:40;;;;;;;7.40;5.25;;;;;;;10.07;100.00;100972.94;5178641;27;20129;-62
2023/09/26 00:57:07;;;;;;;11.93;5.35;;;;;;;10.06;100.00;100963.13;5179026;27;20094;-63
2023/09/26 00:59:34;;;;;;;9.00;5.32;;;;;;;10.05;100.00;100968.91;5178582;27;20368;-59
2023/09/26 01:02:00;;;;;;;9.35;5.85;;;;;;;9.96;100.00;100973.53;5178727;27;20050;-63
2023/09/26 01:04:27;;;;;;;15.43;5.13;;;;;;;10.02;100.00;100967.59;5178800;27;20074;-62
2023/09/26 01:06:53;;;;;;;13.15;6.43;;;;;;;10.08;100.00;100949.88;5178406;27;20053;-62
2023/09/26 01:09:19;;;;;;;10.82;5.65;;;;;;;10.12;100.00;100950.06;5178495;27;20046;-63
2023/09/26 01:11:48;;;;;;;10.57;5.63;;;;;;;10.13;100.00;100954.44;5178590;27;20096;-61
2023/09/26 01:14:14;;;;;;;15.55;5.85;;;;;;;10.12;100.00;100958.28;5178550;27;20082;-62
2023/09/26 01:16:41;;;;;;;7.90;5.18;;;;;;;10.13;100.00;100959.91;5178444;27;20141;-62
2023/09/26 01:19:07;;;;;;;21.60;7.50;;;;;;;10.14;100.00;100973.28;5178667;27;20426;-62
2023/09/26 01:21:33;;;;;;;10.52;5.43;;;;;;;10.07;100.00;100980.34;5179969;27;20050;-62
2023/09/26 01:24:00;;;;;;;6.07;4.85;;;;;;;10.07;100.00;100972.94;5182396;27;20056;-60
2023/09/26 01:26:33;;;;;;;8.23;4.88;;;;;;;10.09;100.00;100976.16;5181900;27;20142;-60
2023/09/26 01:28:59;;;;;;;7.97;4.53;;;;;;;10.11;100.00;100978.59;5181807;27;20094;-60
2023/09/26 01:31:25;;;;;;;8.27;5.35;;;;;;;10.01;100.00;100985.16;5181827;27;20055;-62
2023/09/26 01:33:51;;;;;;;6.85;4.97;;;;;;;9.96;100.00;100981.75;5181732;27;20058;-63
2023/09/26 01:36:17;;;;;;;7.40;4.45;;;;;;;10.00;100.00;100972.59;5182067;27;20081;-61
2023/09/26 01:38:44;;;;;;;7.68;4.95;;;;;;;9.97;100.00;100975.16;5181590;27;20408;-61
2023/09/26 01:41:11;;;;;;;9.10;5.13;;;;;;;9.93;100.00;100968.69;5181679;27;20054;-59
2023/09/26 01:43:36;;;;;;;10.40;5.13;;;;;;;9.98;100.00;100974.03;5181602;27;20408;-60
2023/09/26 01:46:03;;;;;;;8.38;5.78;;;;;;;9.96;100.00;100979.00;5182023;27;20057;-62
2023/09/26 01:48:29;;;;;;;7.28;4.88;;;;;;;9.94;100.00;100981.28;5181491;27;20085;-60
2023/09/26 01:50:54;;;;;;;7.75;4.95;;;;;;;9.91;100.00;100982.72;5181910;27;20133;-60
2023/09/26 01:53:20;;;;;;;8.82;5.45;;;;;;;9.83;100.00;100970.59;5181534;27;20061;-60
2023/09/26 01:55:46;;;;;;;8.77;5.43;;;;;;;9.77;100.00;100969.13;5181635;27;20195;-60
2023/09/26 01:58:13;;;;;;;11.38;5.63;;;;;;;9.75;100.00;100957.66;5181315;27;20449;-61
2023/09/26 02:00:39;;;;;;;9.75;5.80;;;;;;;9.79;100.00;100958.63;5181575;27;20375;-60
2023/09/26 02:03:05;;;;;;;7.20;5.22;;;;;;;9.79;100.00;100955.09;5181517;27;20049;-62
2023/09/26 02:05:31;;;;;;;8.25;5.68;;;;;;;9.81;100.00;100953.66;5181459;27;20304;-61
2023/09/26 02:10:41;;;;;;;13.13;5.78;;;;;;;9.89;100.00;100958.34;5181207;27;20061;-63
2023/09/26 02:13:08;;;;;;;12.85;5.53;;;;;;;9.86;100.00;100964.50;5181596;27;20050;-61
2023/09/26 02:15:36;;;;;;;7.47;5.10;;;;;;;9.84;100.00;100955.78;5181111;27;20046;-59
2023/09/26 02:18:02;;;;;;;9.73;6.07;;;;;;;9.85;100.00;100964.78;5181426;27;20459;-60
2023/09/26 02:20:28;;;;;;;5.90;4.75;;;;;;;9.81;100.00;100966.56;5181073;27;20331;-59
2023/09/26 02:22:54;;;;;;;7.82;4.95;;;;;;;9.84;100.00;100987.84;5181393;27;20050;-60
2023/09/26 02:25:21;;;;;;;8.57;5.53;;;;;;;9.82;100.00;100990.06;5181206;27;20301;-62
2023/09/26 02:27:48;;;;;;;8.65;5.70;;;;;;;9.77;100.00;100993.75;5181240;27;20404;-61
2023/09/26 02:30:16;;;;;;;8.80;5.45;;;;;;;9.82;100.00;100998.28;5180959;27;20137;-60
2023/09/26 02:32:42;;;;;;;9.88;4.97;;;;;;;9.71;100.00;100995.03;5180380;27;20050;-62
2023/09/26 02:35:11;;;;;;;7.72;4.97;;;;;;;9.63;100.00;100995.78;5181216;27;20063;-62
2023/09/26 02:37:38;;;;;;;9.05;5.38;;;;;;;9.46;100.00;100998.41;5180734;27;20102;-61
2023/09/26 02:40:09;;;;;;;7.97;5.30;;;;;;;9.63;100.00;100993.84;5181096;27;20133;-60
2023/09/26 02:42:36;;;;;;;8.93;5.45;;;;;;;9.60;100.00;100993.69;5180587;27;20054;-62
2023/09/26 02:45:02;;;;;;;9.20;5.35;;;;;;;9.57;100.00;100986.91;5181117;27;20046;-59
2023/09/26 02:47:28;;;;;;;9.02;5.45;;;;;;;9.61;100.00;100976.91;5180618;27;20050;-63
2023/09/26 02:49:55;;;;;;;8.70;5.40;;;;;;;9.57;100.00;100978.69;5181010;27;20150;-60
2023/09/26 02:52:21;;;;;;;8.40;5.53;;;;;;;9.52;100.00;100976.06;5180763;27;20050;-62
2023/09/26 02:54:47;;;;;;;9.98;5.82;;;;;;;9.55;100.00;100980.09;5180737;27;20368;-60
2023/09/26 02:57:14;;;;;;;8.95;5.82;;;;;;;9.52;100.00;100976.06;5180713;27;20068;-60
2023/09/26 02:59:40;;;;;;;10.98;5.68;;;;;;;9.52;100.00;100972.53;5180569;27;20050;-62
2023/09/26 03:02:06;;;;;;;6.75;5.40;;;;;;;9.35;100.00;100974.03;5180438;27;20381;-63
2023/09/26 03:04:32;;;;;;;9.57;4.97;;;;;;;9.42;100.00;100959.91;5179987;27;20053;-59
2023/09/26 03:06:58;;;;;;;8.35;5.43;;;;;;;9.43;100.00;100958.81;5180656;27;20054;-60
2023/09/26 03:09:25;;;;;;;7.05;5.25;;;;;;;9.43;100.00;100961.53;5180118;27;20415;-61
2023/09/26 03:11:51;;;;;;;21.88;6.50;;;;;;;9.46;100.00;100965.56;5180512;27;20336;-61
2023/09/26 03:14:18;;;;;;;9.70;5.82;;;;;;;9.46;100.00;100949.94;5180202;27;20046;-60
2023/09/26 03:16:45;;;;;;;9.20;5.72;;;;;;;9.36;100.00;100956.50;5180562;27;20041;-61
2023/09/26 03:19:11;;;;;;;8.90;6.60;;;;;;;9.40;100.00;100943.00;5180017;27;20054;-60
2023/09/26 03:21:37;;;;;;;9.10;5.93;;;;;;;9.39;100.00;100941.34;5180163;27;20046;-60
2023/09/26 03:24:04;;;;;;;8.68;6.70;;;;;;;9.39;100.00;100933.16;5180020;27;20422;-62
2023/09/26 03:26:30;;;;;;;8.18;6.15;;;;;;;9.38;100.00;100947.97;5180177;27;20046;-61
2023/09/26 03:28:56;;;;;;;6.32;5.30;;;;;;;9.41;100.00;100945.41;5179983;27;20042;-60
2023/09/26 03:31:22;;;;;;;7.72;5.05;;;;;;;9.40;100.00;100949.28;5179856;27;20110;-60
2023/09/26 03:33:48;;;;;;;6.97;5.30;;;;;;;9.40;100.00;100948.47;5180188;27;20057;-61
2023/09/26 03:36:14;;;;;;;7.70;5.10;;;;;;;9.50;100.00;100941.94;5179775;27;20467;-62
2023/09/26 03:38:40;;;;;;;9.00;6.30;;;;;;;9.47;100.00;100935.16;5179958;27;20144;-62
2023/09/26 03:41:07;;;;;;;9.88;5.70;;;;;;;9.56;100.00;100938.75;5179639;27;20162;-62
2023/09/26 03:43:33;;;;;;;10.02;5.57;;;;;;;9.45;100.00;100942.03;5179198;27;20056;-63
2023/09/26 03:46:02;;;;;;;6.95;5.18;;;;;;;9.52;100.00;100929.50;5179670;27;20050;-60
2023/09/26 03:48:28;;;;;;;6.82;5.30;;;;;;;9.55;100.00;100919.88;5180020;27;20046;-63
2023/09/26 03:50:54;;;;;;;9.95;5.90;;;;;;;9.63;100.00;100911.72;5179835;27;20050;-62
2023/09/26 03:53:20;;;;;;;7.30;5.22;;;;;;;9.66;100.00;100919.28;5179465;27;20056;-61
2023/09/26 03:55:53;;;;;;;10.00;5.68;;;;;;;9.54;100.00;100923.75;5179858;27;20046;-61
2023/09/26 03:58:20;;;;;;;5.93;5.20;;;;;;;9.69;100.00;100914.28;5179617;27;20049;-61
2023/09/26 04:00:46;;;;;;;7.85;5.28;;;;;;;9.71;100.00;100918.34;5179643;27;20107;-61
2023/09/26 04:03:12;;;;;;;6.45;4.50;;;;;;;9.73;100.00;100932.53;5179319;27;20141;-60
2023/09/26 04:05:39;;;;;;;10.32;5.00;;;;;;;9.69;100.00;100944.41;5179802;27;20046;-60
2023/09/26 04:08:06;;;;;;;7.13;5.38;;;;;;;9.68;100.00;100945.53;5179355;27;20042;-60
2023/09/26 04:10:36;;;;;;;6.38;4.45;;;;;;;9.75;100.00;100954.13;5179643;27;20098;-61
2023/09/26 04:13:02;;;;;;;9.10;5.00;;;;;;;9.75;100.00;100945.91;5179227;27;20081;-60
2023/09/26 04:15:28;;;;;;;6.10;5.20;;;;;;;9.80;100.00;100960.28;5179623;27;20475;-61
2023/09/26 04:17:54;;;;;;;10.68;5.20;;;;;;;9.77;100.00;100958.16;5179068;27;20046;-62
2023/09/26 04:20:20;;;;;;;7.30;4.85;;;;;;;9.85;100.00;100973.81;5179068;27;20046;-62
2023/09/26 04:22:47;;;;;;;7.03;5.22;;;;;;;9.85;100.00;100965.59;5178853;27;20488;-61
2023/09/26 04:25:13;;;;;;;10.75;5.65;;;;;;;9.88;100.00;100970.44;5178961;27;20049;-62
2023/09/26 04:27:39;;;;;;;6.55;4.82;;;;;;;9.97;100.00;100980.66;5179428;27;20146;-62
2023/09/26 04:30:07;;;;;;;5.93;4.80;;;;;;;9.95;100.00;100983.69;5179052;27;20129;-61
2023/09/26 04:32:33;;;;;;;8.05;4.88;;;;;;;9.99;100.00;100994.81;5179332;27;20129;-61
2023/09/26 04:34:59;;;;;;;5.22;4.28;;;;;;;9.99;100.00;101005.78;5179034;27;20384;-60
2023/09/26 04:37:25;;;;;;;7.85;4.28;;;;;;;10.03;100.00;101021.28;5179304;27;20078;-60
2023/09/26 04:39:51;;;;;;;5.65;4.43;;;;;;;10.05;100.00;101020.97;5178790;27;20061;-61
2023/09/26 04:42:17;;;;;;;7.43;4.55;;;;;;;9.99;100.00;101019.47;5179110;27;20407;-62
2023/09/26 04:44:43;;;;;;;6.32;4.55;;;;;;;10.20;100.00;101027.97;5178728;27;20042;-62
2023/09/26 04:47:08;;;;;;;4.38;3.90;;;;;;;10.62;100.00;101037.47;5178910;27;20419;-62
2023/09/26 04:49:35;;;;;;;4.35;3.70;;;;;;;11.17;100.00;101058.84;5178904;27;20057;-61
2023/09/26 04:52:01;;;;;;;5.78;3.28;;;;;;;11.88;100.00;101096.94;5178841;27;20054;-63
2023/09/26 04:54:27;;;;;;;5.55;3.58;;;;;;;12.36;100.00;101130.78;5178983;27;20050;-61
2023/09/26 04:56:53;;;;;;;4.45;3.22;;;;;;;12.71;100.00;101073.66;5182430;27;20046;-61
2023/09/26 04:59:19;;;;;;;3.38;2.88;;;;;;;13.04;100.00;100943.56;5182476;27;20104;-63
2023/09/26 05:01:45;;;;;;;5.07;3.03;;;;;;;13.28;100.00;100739.84;5182111;27;20467;-62
2023/09/26 05:04:11;;;;;;;4.75;3.20;;;;;;;13.67;100.00;100511.56;5182345;27;20429;-60
2023/09/26 05:06:38;;;;;;;3.22;2.78;;;;;;;13.88;100.00;100269.53;5182094;27;20466;-61
2023/09/26 05:09:05;;;;;;;3.40;3.00;;;;;;;14.29;100.00;100098.19;5182623;27;20141;-61
2023/09/26 05:11:31;;;;;;;5.25;3.10;;;;;;;14.31;100.00;99969.78;5182023;27;20053;-61
2023/09/26 05:13:57;;;;;;;5.45;2.60;;;;;;;14.82;100.00;99856.19;5182450;27;20105;-57
2023/09/26 05:16:23;;;;;;;2.83;2.58;;;;;;;15.37;100.00;99783.75;5182135;27;20137;-62
2023/09/26 05:18:49;;;;;;;3.70;2.70;;;;;;;15.33;100.00;99741.50;5182180;27;20077;-65
2023/09/26 05:21:15;;;;;;;5.65;3.08;;;;;;;15.44;100.00;99739.59;5182090;27;20149;-63
2023/09/26 05:23:41;;;;;;;3.92;2.90;;;;;;;15.85;100.00;99747.00;5181842;27;20061;-60
2023/09/26 05:26:09;;;;;;;4.25;3.80;;;;;;;16.37;100.00;99761.50;5181932;27;20427;-62
2023/09/26 05:28:35;;;;;;;4.45;2.60;;;;;;;16.34;100.00;99792.69;5181984;27;20068;-58
2023/09/26 05:31:02;;;;;;;4.53;2.38;;;;;;;16.85;100.00;99858.19;5182133;27;20046;-63
2023/09/26 05:33:28;;;;;;;2.85;2.47;;;;;;;16.47;100.00;99844.56;5181685;27;20062;-57
2023/09/26 05:35:55;;;;;;;8.02;3.60;;;;;;;17.05;100.00;99842.81;5182138;27;20050;-61
2023/09/26 05:38:21;;;;;;;3.50;2.63;;;;;;;17.41;100.00;99910.19;5181543;27;20132;-60
2023/09/26 05:40:50;;;;;;;5.30;2.85;;;;;;;17.79;100.00;99988.31;5181914;27;20050;-60
2023/09/26 05:43:16;;;;;;;7.35;2.92;;;;;;;17.81;100.00;99985.94;5181475;27;20113;-56
2023/09/26 05:45:42;;;;;;;4.78;3.45;;;;;;;17.91;100.00;99989.13;5181377;27;20416;-61
2023/09/26 05:48:08;;;;;;;5.95;2.50;;;;;;;17.81;100.00;100005.34;5181748;27;20057;-61
2023/09/26 05:50:34;;;;;;;4.78;3.50;;;;;;;18.36;100.00;100001.44;5181614;27;20068;-57
2023/09/26 05:53:01;;;;;;;3.97;2.72;;;;;;;18.62;100.00;100061.28;5181810;27;20050;-61
2023/09/26 05:55:26;;;;;;;2.97;2.60;;;;;;;18.52;100.00;100087.88;5181146;27;20427;-55
2023/09/26 05:57:53;;;;;;;5.93;2.60;;;;;;;19.16;100.00;100117.66;5181666;27;20042;-55
2023/09/26 06:00:19;;;;;;;5.07;2.60;;;;;;;19.17;100.00;100155.34;5181258;27;20132;-59
2023/09/26 06:02:45;;;;;;;4.60;2.67;;;;;;;19.67;100.00;100197.00;5181424;27;20491;-61
2023/09/26 06:05:11;;;;;;;9.55;2.85;;;;;;;19.41;100.00;100197.41;5181103;27;20054;-63
2023/09/26 06:07:37;;;;;;;4.30;3.00;;;;;;;19.78;100.00;100174.69;5180552;27;20042;-56
2023/09/26 06:10:04;;;;;;;6.03;2.45;;;;;;;19.75;100.00;100195.75;5181066;27;20183;-56
2023/09/26 06:12:30;;;;;;;4.43;2.60;;;;;;;20.45;100.00;100232.06;5181543;27;20086;-60
2023/09/26 06:14:57;;;;;;;2.75;2.55;;;;;;;20.18;100.00;100239.34;5181117;27;20049;-57
2023/09/26 06:17:23;;;;;;;4.00;2.58;;;;;;;20.54;100.00;100245.59;5180975;27;20117;-57
2023/09/26 06:19:49;;;;;;;5.70;2.60;;;;;;;20.87;100.00;100269.25;5181183;27;20042;-59
2023/09/26 06:22:16;;;;;;;5.25;2.97;;;;;;;20.85;100.00;100285.59;5180458;27;20046;-62
2023/09/26 06:24:42;;;;;;;6.28;2.60;;;;;;;21.17;100.00;100283.81;5180937;27;20074;-59
2023/09/26 06:27:07;;;;;;;5.38;2.72;;;;;;;21.40;100.00;100272.09;5180835;27;20148;-63
2023/09/26 06:29:37;;;;;;;6.30;2.75;;;;;;;21.85;100.00;100306.34;5181178;27;20077;-62
2023/09/26 06:32:04;;;;;;;3.22;2.22;;;;;;;21.65;100.00;100305.34;5180726;27;20160;-64
2023/09/26 06:34:31;;;;;;;2.45;2.03;;;;;;;22.07;100.00;100332.84;5180824;27;20424;-57
2023/09/26 06:36:58;;;;;;;2.40;2.20;;;;;;;22.18;100.00;100329.16;5180396;27;20046;-60
2023/09/26 06:39:24;;;;;;;1.77;1.65;;;;;;;22.27;100.00;100341.44;5181168;27;20404;-60
2023/09/26 06:41:50;;;;;;;3.83;2.10;;;;;;;21.83;100.00;100328.31;5180766;27;20046;-62
2023/09/26 06:44:16;;;;;;;3.60;2.00;;;;;;;22.07;100.00;100335.63;5180573;27;20140;-65
2023/09/26 06:46:42;;;;;;;3.65;2.35;;;;;;;22.39;100.00;100359.66;5180739;27;20337;-62
2023/09/26 06:49:08;;;;;;;1.90;1.80;;;;;;;22.46;100.00;100344.78;5180129;27;20317;-61
2023/09/26 06:51:34;;;;;;;8.27;3.10;;;;;;;22.84;100.00;100358.72;5180419;27;20068;-56
2023/09/26 06:54:00;;;;;;;2.30;1.67;;;;;;;22.51;100.00;100373.09;5180683;27;20105;-60
2023/09/26 06:56:27;;;;;;;4.38;2.00;;;;;;;23.34;100.00;100369.22;5180082;27;20137;-66
2023/09/26 06:58:53;;;;;;;2.33;2.08;;;;;;;23.59;100.00;100366.00;5180122;27;20096;-66
2023/09/26 07:01:19;;;;;;;5.40;2.25;;;;;;;23.59;100.00;100364.03;5180439;27;20045;-66
2023/09/26 07:03:46;;;;;;;1.67;1.45;;;;;;;22.28;100.00;100372.94;5180155;27;20046;-64
2023/09/26 07:06:14;;;;;;;1.38;1.27;;;;;;;22.86;100.00;100371.06;5180685;27;20053;-64
2023/09/26 07:08:41;;;;;;;4.25;1.77;;;;;;;22.90;100.00;100374.59;5179928;27;20137;-65
2023/09/26 07:11:09;;;;;;;3.05;1.67;;;;;;;22.60;100.00;100369.00;5180021;27;20411;-65
2023/09/26 07:13:35;;;;;;;1.88;1.65;;;;;;;23.44;100.00;100373.84;5180284;27;20061;-65
2023/09/26 07:16:03;;;;;;;3.47;1.75;;;;;;;23.82;100.00;100384.88;5180061;27;20145;-66
2023/09/26 07:18:29;;;;;;;3.17;1.70;;;;;;;23.63;100.00;100377.97;5178939;27;20057;-60
2023/09/26 07:20:55;;;;;;;3.00;1.55;;;;;;;23.63;100.00;100384.34;5179927;27;20046;-64
2023/09/26 07:23:21;;;;;;;2.60;1.73;;;;;;;23.84;100.00;100396.44;5179686;27;20140;-63
2023/09/26 07:25:47;;;;;;;2.28;1.67;;;;;;;23.89;100.00;100391.16;5179741;27;20050;-62
2023/09/26 07:28:13;;;;;;;3.55;1.80;;;;;;;24.52;100.00;100395.22;5179940;27;20052;-64
2023/09/26 07:30:39;;;;;;;2.35;1.90;;;;;;;24.41;100.00;100401.03;5179602;27;20082;-69
2023/09/26 07:33:05;;;;;;;3.88;1.70;;;;;;;24.25;100.00;100384.09;5179952;27;20137;-66
2023/09/26 07:35:31;;;;;;;2.22;1.73;;;;;;;23.29;100.00;100380.88;5179536;27;20162;-64
2023/09/26 07:37:58;;;;;;;1.90;1.48;;;;;;;23.78;100.00;100387.72;5179668;27;20171;-63
2023/09/26 07:40:32;;;;;;;3.35;1.58;;;;;;;24.63;100.00;100393.03;5200392;27;20155;-62
2023/09/26 07:42:58;;;;;;;3.42;1.70;;;;;;;24.56;100.00;100409.97;5196122;27;20056;-63
2023/09/26 07:45:24;;;;;;;5.00;2.97;;;;;;;24.57;100.00;100414.38;5196203;27;20081;-64
2023/09/26 07:47:50;;;;;;;10.60;6.57;;;;;;;24.32;100.00;100409.97;5196384;27;20381;-66
2023/09/26 07:50:15;;;;;;;9.30;5.38;;;;;;;24.96;100.00;100399.53;5196073;27;20057;-67
2023/09/26 07:52:42;;;;;;;5.13;2.08;;;;;;;25.20;100.00;100422.69;5196196;27;20046;-69
2023/09/26 07:55:09;;;;;;;3.85;3.28;;;;;;;24.62;100.00;100419.44;5196182;27;20042;-67
2023/09/26 07:57:36;;;;;;;5.53;2.78;;;;;;;25.09;100.00;100416.47;5196186;27;20050;-66
2023/09/26 08:00:11;;;;;;;7.00;2.85;;;;;;;24.94;100.00;100418.03;5196100;27;20053;-62
2023/09/26 08:02:37;;;;;;;2.10;1.90;;;;;;;25.01;100.00;100412.25;5196397;27;20046;-62
2023/09/26 08:05:03;;;;;;;3.97;2.30;;;;;;;23.19;100.00;100400.22;5195720;27;20395;-60
2023/09/26 08:07:29;;;;;;;3.17;2.33;;;;;;;24.99;100.00;100397.84;5196175;27;20202;-65
2023/09/26 08:10:00;;;;;;;6.38;1.73;;;;;;;25.38;99.13;100413.06;5195483;27;20054;-64
2023/09/26 08:12:26;;;;;;;3.55;1.50;;;;;;;24.85;100.00;100407.38;5195522;27;20069;-60
2023/09/26 08:14:54;;;;;;;4.43;1.60;;;;;;;25.34;96.20;100413.16;5195700;27;20061;-64
2023/09/26 08:17:20;;;;;;;2.47;1.30;;;;;;;25.75;94.07;100418.19;5195371;27;20395;-62
2023/09/26 08:19:45;;;;;;;1.77;1.55;;;;;;;24.82;96.93;100411.81;5195415;27;20141;-62
2023/09/26 08:22:12;;;;;;;4.40;2.00;;;;;;;25.35;100.00;100407.09;5195676;27;20052;-61
2023/09/26 08:24:39;;;;;;;1.75;1.40;;;;;;;23.87;100.00;100410.38;5195803;27;20417;-66
2023/09/26 08:27:05;;;;;;;2.15;1.27;;;;;;;24.63;97.67;100412.66;5195641;27;20106;-66
2023/09/26 08:29:31;;;;;;;2.05;1.50;;;;;;;24.36;100.00;100395.91;5195857;27;20395;-65
2023/09/26 08:31:58;;;;;;;4.93;2.42;;;;;;;25.47;94.77;100410.47;5195616;27;20046;-64
2023/09/26 08:34:24;;;;;;;2.38;1.60;;;;;;;25.68;90.58;100409.94;5195887;27;20141;-64
2023/09/26 08:36:51;;;;;;;2.08;1.45;;;;;;;25.94;85.39;100424.19;5195600;27;20047;-63
2023/09/26 08:39:17;;;;;;;2.42;1.58;;;;;;;24.47;95.19;100409.75;5195624;27;20042;-64
2023/09/26 08:41:44;;;;;;;4.70;1.70;;;;;;;24.63;96.78;100404.22;5195722;27;20046;-63
2023/09/26 08:44:11;;;;;;;2.10;1.40;;;;;;;24.36;95.73;100407.13;5195482;27;20112;-63
2023/09/26 08:46:38;;;;;;;1.85;1.52;;;;;;;24.53;96.21;100406.03;5195455;27;20193;-65
2023/09/26 08:49:05;;;;;;;3.53;1.60;;;;;;;24.83;93.04;100407.03;5195129;27;20152;-63
2023/09/26 08:51:31;;;;;;;3.22;1.65;;;;;;;24.95;95.50;100408.38;5183544;27;20050;-63
2023/09/26 08:53:57;;;;;;;1.85;1.33;;;;;;;24.73;94.27;100410.84;5181016;27;20057;-66
2023/09/26 08:56:23;;;;;;;2.67;1.40;;;;;;;25.05;91.11;100401.75;5181494;27;20050;-63
2023/09/26 08:58:50;;;;;;;2.88;1.50;;;;;;;25.64;87.28;100408.44;5181053;27;20042;-61
2023/09/26 09:01:17;;;;;;;2.58;1.60;;;;;;;25.18;86.98;100407.50;5181383;27;20114;-64
2023/09/26 09:03:43;;;;;;;4.68;1.40;;;;;;;25.93;89.14;100405.75;5181101;27;20053;-63
2023/09/26 09:06:10;;;;;;;2.97;1.50;;;;;;;25.32;88.60;100408.00;5181488;27;20407;-62
2023/09/26 09:08:36;;;;;;;3.15;1.40;;;;;;;25.79;85.79;100406.84;5180631;27;20046;-62
2023/09/26 09:11:02;;;;;;;2.35;1.52;;;;;;;24.93;90.70;100397.59;5180785;27;20082;-60
2023/09/26 09:13:29;;;;;;;2.30;1.55;;;;;;;24.81;93.60;100393.44;5181054;27;20076;-61
2023/09/26 09:16:17;;;;;;;1.58;1.35;;;;;;;24.93;97.44;100383.56;5181035;27;20050;-61
2023/09/26 09:18:44;;;;;;;2.67;1.42;;;;;;;23.91;100.00;100377.50;5173613;27;20110;-63
2023/09/26 09:21:27;;;;;;;3.55;1.85;;;;;;;24.78;98.09;100380.25;5183385;27;20391;-69
2023/09/26 09:23:54;;;;;;;2.63;1.63;;;;;;;25.30;94.07;100385.16;5181706;27;20330;-67
2023/09/26 09:26:21;;;;;;;3.35;2.15;;;;;;;24.59;100.00;100387.47;5180569;27;20050;-66
2023/09/26 09:28:48;;;;;;;2.83;2.03;;;;;;;24.93;98.43;100380.75;5180911;27;20053;-69
2023/09/26 09:31:15;;;;;;;2.17;1.40;;;;;;;25.59;91.67;100379.69;5180902;27;20046;-66
2023/09/26 09:33:45;;;;;;;1.88;1.70;;;;;;;24.78;100.00;100368.25;5180652;27;20085;-63
2023/09/26 09:36:12;;;;;;;1.42;1.33;;;;;;;24.54;100.00;100371.16;5180782;27;20049;-63
2023/09/26 09:38:39;;;;;;;2.97;1.85;;;;;;;24.96;96.40;100374.28;5180230;27;20050;-64
2023/09/26 09:41:05;;;;;;;2.15;1.50;;;;;;;23.93;98.89;100375.06;5180682;27;20207;-62
2023/09/26 09:43:31;;;;;;;1.60;1.50;;;;;;;24.83;97.18;100362.16;5180386;27;20420;-60
2023/09/26 09:46:04;;;;;;;3.42;1.90;;;;;;;25.30;92.84;100373.94;5180643;27;20076;-63
2023/09/26 09:48:31;;;;;;;;;;;;;;;24.32;95.49;100367.94;5180799;27;20362;-66
2023/09/26 09:50:59;;;;;;;3.28;1.63;;;;;;;24.80;98.12;100358.19;5180915;27;19952;-66
2023/09/26 09:53:29;;;;;;;2.53;1.52;;;;;;;25.11;97.87;100358.72;5179965;27;20145;-66
2023/09/26 09:56:03;;;;;;;3.30;3.00;;;;;;;23.97;100.00;100354.63;5179999;27;20137;-62
2023/09/26 09:58:33;;;;;;;1.73;1.60;;;;;;;24.01;100.00;100344.91;5180381;27;20125;-65
2023/09/26 10:01:00;;;;;;;2.42;1.67;;;;;;;24.68;98.70;100347.63;5180493;27;20327;-62
2023/09/26 10:03:26;;;;;;;3.72;1.80;;;;;;;24.94;96.29;100357.09;5179113;27;20057;-61
2023/09/26 10:05:52;;;;;;;1.60;1.50;;;;;;;25.09;94.42;100349.13;5179874;27;20133;-68
2023/09/26 10:08:20;;;;;;;5.15;2.75;;;;;;;25.04;100.00;100339.22;5180123;27;20053;-64
2023/09/26 10:10:46;;;;;;;1.98;1.88;;;;;;;24.91;99.02;100340.34;5179844;27;20334;-64
2023/09/26 10:13:15;;;;;;;3.95;1.92;;;;;;;23.95;100.00;100338.22;5180204;27;20417;-64
2023/09/26 10:16:11;;;;;;;5.43;1.80;;;;;;;24.63;100.00;100329.31;5179886;27;20046;-65
2023/09/26 10:18:39;;;;;;;1.88;1.63;;;;;;;24.54;100.00;100329.09;5179538;27;20430;-63
2023/09/26 10:21:19;;;;;;;3.67;1.70;;;;;;;24.13;98.75;100340.72;5179915;27;20177;-67
2023/09/26 10:24:25;;;;;;;3.63;2.70;;;;;;;24.26;99.68;100346.44;5179632;27;20046;-62
2023/09/26 10:26:51;;;;;;;2.13;1.60;;;;;;;24.27;99.81;100339.66;5180002;27;20056;-61
2023/09/26 10:29:25;;;;;;;1.92;1.73;;;;;;;24.55;96.74;100347.50;5179496;27;20397;-62
2023/09/26 10:31:53;;;;;;;3.47;1.52;;;;;;;23.51;100.00;100333.78;5179625;27;20046;-64
2023/09/26 10:34:21;;;;;;;5.65;2.15;;;;;;;23.66;100.00;100321.13;5179831;27;20069;-61
2023/09/26 10:36:47;;;;;;;2.17;1.55;;;;;;;24.35;100.00;100327.84;5179569;27;20384;-63
2023/09/26 10:39:14;;;;;;;5.10;1.30;;;;;;;24.11;100.00;100338.31;5179441;27;20136;-65
2023/09/26 10:41:40;;;;;;;1.83;1.60;;;;;;;23.74;100.00;100328.22;5179363;27;20446;-63
2023/09/26 10:44:06;;;;;;;4.40;1.90;;;;;;;23.57;100.00;100327.28;5179496;27;20149;-63
2023/09/26 10:46:33;;;;;;;3.35;1.50;;;;;;;24.03;100.00;100320.09;5179340;27;20051;-62
2023/09/26 10:49:00;;;;;;;4.13;2.60;;;;;;;24.61;94.89;100325.34;5179634;27;20046;-63
2023/09/26 10:51:26;;;;;;;1.50;1.40;;;;;;;23.97;95.52;100313.41;5179160;27;20111;-62
2023/09/26 10:53:52;;;;;;;3.70;1.30;;;;;;;23.90;97.00;100319.13;5180001;27;20137;-63
2023/09/26 10:56:18;;;;;;;3.92;1.67;;;;;;;23.78;96.44;100314.94;5179101;27;20388;-62
2023/09/26 10:58:44;;;;;;;2.22;1.35;;;;;;;23.68;94.00;100319.50;5179488;27;20054;-60
2023/09/26 11:01:11;;;;;;;1.80;1.38;;;;;;;23.37;94.68;100318.00;5179080;27;20061;-64
2023/09/26 11:03:38;;;;;;;1.60;1.40;;;;;;;23.28;99.95;100314.94;5178879;27;20065;-63
2023/09/26 11:06:04;;;;;;;2.55;1.52;;;;;;;22.89;100.00;100297.53;5179179;27;20086;-64
2023/09/26 11:08:31;;;;;;;2.30;1.50;;;;;;;22.59;100.00;100298.31;5179142;27;20141;-62
2023/09/26 11:10:57;;;;;;;1.73;1.10;;;;;;;22.40;100.00;100301.78;5178975;27;20133;-63
2023/09/26 11:13:24;;;;;;;1.58;1.23;;;;;;;22.26;100.00;100300.75;5178518;27;20482;-60
2023/09/26 11:15:51;;;;;;;1.77;1.27;;;;;;;21.91;100.00;100296.31;5179291;27;20049;-61
2023/09/26 11:18:18;;;;;;;1.75;1.50;;;;;;;21.18;100.00;100282.59;5178784;27;20057;-61
2023/09/26 11:20:45;;;;;;;3.80;1.63;;;;;;;20.80;100.00;100260.16;5179026;27;20114;-60
2023/09/26 11:23:11;;;;;;;1.45;1.10;;;;;;;20.96;100.00;100260.47;5178728;27;20138;-60